Time;durP1;ratioP1;P1;durP2;ratioP2;P2;SDS_P1;SDS_P2;PMS_P1;PMS_P2;Temp;Humidity;BMP_temperature;BMP_pressure;BME280_temperature;BME280_humidity;BME280_pressure;Samples;Min_cycle;Max_cycle;Signal;HPM_P1;HPM_P2
2024/04/03 00:05:43;;;;;;;5.50;2.40;;;;;;;9.33;70.76;97586.86;434578;1256;112521;-40
2024/04/03 00:15:50;;;;;;;6.70;3.30;;;;;;;9.24;70.85;97594.09;434328;1266;107349;-41
2024/04/03 00:36:03;;;;;;;6.50;1.70;;;;;;;9.14;70.92;97589.23;434576;1258;107971;-41
2024/04/03 00:46:10;;;;;;;3.50;1.80;;;;;;;9.01;71.08;97596.35;434458;1266;100570;-41
2024/04/03 00:56:18;;;;;;;2.40;1.20;;;;;;;9.01;71.15;97603.61;434326;1254;112227;-41
2024/04/03 01:06:25;;;;;;;7.50;1.50;;;;;;;9.13;71.49;97601.09;435251;1249;107993;-40
2024/04/03 01:16:32;;;;;;;5.90;1.70;;;;;;;9.11;71.49;97593.94;435342;1256;99360;-41
2024/04/03 01:26:39;;;;;;;2.50;1.00;;;;;;;9.13;71.48;97591.38;435155;1256;108475;-42
2024/04/03 01:36:45;;;;;;;3.50;1.10;;;;;;;9.13;71.51;97588.38;435278;1255;99851;-41
2024/04/03 01:46:52;;;;;;;7.90;1.90;;;;;;;9.05;71.59;97582.11;435216;1257;113296;-41
2024/04/03 01:56:59;;;;;;;2.90;0.90;;;;;;;9.06;71.61;97582.38;435118;1256;106425;-40
2024/04/03 02:07:03;;;;;;;2.60;1.10;;;;;;;9.07;71.58;97572.91;435368;1256;99315;-41
2024/04/03 02:17:10;;;;;;;5.10;1.90;;;;;;;9.02;71.58;97568.30;435387;1253;108113;-41
2024/04/03 02:27:16;;;;;;;2.30;1.00;;;;;;;9.02;71.72;97562.04;435138;1263;100553;-41
2024/04/03 02:37:23;;;;;;;2.70;1.00;;;;;;;9.01;71.68;97560.82;435181;1253;113288;-41
2024/04/03 02:47:30;;;;;;;5.00;1.20;;;;;;;8.99;71.95;97559.83;435122;1256;107934;-39
2024/04/03 02:57:37;;;;;;;4.80;1.90;;;;;;;8.84;72.05;97563.27;435327;1251;99388;-40
2024/04/03 03:07:43;;;;;;;2.00;1.30;;;;;;;8.69;72.56;97558.54;435146;1256;109042;-41
2024/04/03 03:17:51;;;;;;;4.20;1.20;;;;;;;8.65;72.92;97550.42;435223;1256;99360;-39
2024/04/03 03:27:58;;;;;;;2.20;1.30;;;;;;;8.58;73.26;97546.50;435081;1256;112550;-42
2024/04/03 03:38:04;;;;;;;2.50;1.20;;;;;;;8.52;73.89;97548.46;435241;1256;108485;-40
2024/04/03 03:48:11;;;;;;;2.80;1.00;;;;;;;8.53;73.89;97547.70;435101;1256;100457;-42
2024/04/03 03:58:17;;;;;;;3.70;1.30;;;;;;;8.62;74.13;97542.90;435307;1254;108460;-41
2024/04/03 04:08:24;;;;;;;2.40;1.00;;;;;;;8.61;74.31;97535.63;435223;1256;99355;-41
2024/04/03 04:18:30;;;;;;;5.70;1.00;;;;;;;8.56;74.25;97540.42;435275;1256;112209;-40
2024/04/03 04:28:37;;;;;;;2.60;1.20;;;;;;;8.65;74.51;97535.03;435114;1257;109235;-41
2024/04/03 04:38:44;;;;;;;5.90;1.60;;;;;;;8.74;74.45;97537.31;435159;1257;100604;-41
2024/04/03 04:48:51;;;;;;;4.50;1.60;;;;;;;8.77;74.48;97542.79;435334;1256;108676;-39
2024/04/03 04:58:57;;;;;;;6.00;1.80;;;;;;;8.77;74.47;97545.75;435388;1256;100584;-42
2024/04/03 05:19:10;;;;;;;4.30;1.40;;;;;;;9.06;74.21;97557.27;435449;1251;107865;-39
2024/04/03 05:29:17;;;;;;;3.00;2.00;;;;;;;9.62;74.07;97554.43;435260;1255;100495;-42
2024/04/03 05:39:24;;;;;;;6.90;2.30;;;;;;;10.58;72.34;97554.64;434888;1256;470540;-42
2024/04/03 05:49:30;;;;;;;4.90;1.70;;;;;;;10.06;71.65;97564.98;435250;1251;99395;-39
2024/04/03 05:59:36;;;;;;;6.40;2.20;;;;;;;9.90;71.47;97573.54;435256;1251;113260;-40
2024/04/03 06:09:43;;;;;;;3.80;2.40;;;;;;;9.84;71.46;97569.85;435386;1256;108380;-40
2024/04/03 06:19:49;;;;;;;7.90;2.40;;;;;;;9.99;71.25;97570.95;435330;1257;99386;-39
2024/04/03 06:29:56;;;;;;;6.40;2.00;;;;;;;10.19;70.66;97580.52;435344;1256;107670;-40
2024/04/03 06:40:01;;;;;;;3.20;1.70;;;;;;;10.66;70.59;97583.55;435204;1251;99949;-40
2024/04/03 06:50:09;;;;;;;6.30;1.60;;;;;;;11.17;69.15;97579.11;435295;1256;112298;-41
2024/04/03 07:00:15;;;;;;;4.80;1.30;;;;;;;11.64;68.85;97581.91;435275;1256;106736;-41
2024/04/03 07:10:21;;;;;;;7.80;2.20;;;;;;;11.49;67.50;97583.36;435378;1252;99852;-41
2024/04/03 07:20:29;;;;;;;5.30;2.30;;;;;;;11.76;67.75;97581.77;435214;1254;107945;-40
2024/04/03 07:30:36;;;;;;;4.80;1.50;;;;;;;11.88;66.62;97590.39;435250;1256;99880;-40
2024/04/03 07:40:45;;;;;;;3.50;1.20;;;;;;;12.70;65.65;97589.37;435250;1256;112549;-41
2024/04/03 07:50:59;;;;;;;3.60;1.70;;;;;;;12.74;64.11;97596.99;435245;1253;108799;-41
2024/04/03 08:01:06;;;;;;;6.40;1.50;;;;;;;12.71;63.35;97602.21;435307;1251;100584;-42
2024/04/03 08:11:13;;;;;;;6.40;1.60;;;;;;;13.55;62.77;97593.89;435428;1252;107455;-39
2024/04/03 08:21:22;;;;;;;6.50;2.00;;;;;;;13.67;61.07;97599.71;435241;1251;99308;-40
2024/04/03 08:31:29;;;;;;;6.10;1.40;;;;;;;13.53;60.05;97609.35;435356;1256;114098;-40
2024/04/03 08:41:35;;;;;;;6.90;1.10;;;;;;;12.89;59.94;97618.52;435274;1256;107148;-42
2024/04/03 08:51:44;;;;;;;4.60;1.30;;;;;;;12.35;59.70;97616.02;435314;1251;100581;-42
2024/04/03 09:12:03;;;;;;;2.70;1.00;;;;;;;12.27;60.04;97627.84;435277;1256;100602;-40
2024/04/03 09:32:16;;;;;;;5.60;1.10;;;;;;;12.65;58.76;97646.07;435261;1256;106403;-41
2024/04/03 09:42:25;;;;;;;4.70;1.20;;;;;;;12.85;57.12;97653.44;435387;1253;100600;-40
2024/04/03 09:52:33;;;;;;;4.10;1.30;;;;;;;13.15;57.33;97649.09;435362;1250;108438;-40
2024/04/03 10:02:47;;;;;;;4.20;1.40;;;;;;;13.43;55.70;97656.06;435242;1250;99446;-41
2024/04/03 10:12:58;;;;;;;2.30;1.20;;;;;;;14.33;54.53;97653.72;435268;1255;113995;-41
2024/04/03 10:33:20;;;;;;;1.80;0.60;;;;;;;13.81;52.20;97659.84;435358;1253;100676;-40
2024/04/03 10:43:28;;;;;;;2.60;0.80;;;;;;;13.76;51.88;97662.00;435168;1256;109446;-42
2024/04/03 10:53:34;;;;;;;2.60;1.20;;;;;;;13.65;52.69;97669.16;435159;1256;100585;-40
2024/04/03 11:03:41;;;;;;;9.30;3.70;;;;;;;13.67;52.92;97675.10;435319;1256;111802;-41
2024/04/03 11:13:48;;;;;;;2.70;0.90;;;;;;;13.79;52.82;97680.11;435251;1256;108070;-42
2024/04/03 11:23:55;;;;;;;7.10;1.50;;;;;;;13.91;52.43;97680.98;435197;1256;100560;-40
2024/04/03 11:34:02;;;;;;;4.10;1.20;;;;;;;13.69;52.59;97683.59;435213;1256;110858;-42
2024/04/03 11:44:09;;;;;;;9.50;1.60;;;;;;;13.74;53.08;97697.55;435248;1254;100597;-40
2024/04/03 11:54:16;;;;;;;7.80;1.70;;;;;;;13.64;53.99;97701.63;435298;1254;113556;-40
2024/04/03 12:04:25;;;;;;;4.90;1.30;;;;;;;14.37;53.62;97695.55;435388;1255;107405;-40
2024/04/03 12:14:32;;;;;;;2.20;1.20;;;;;;;14.26;52.40;97700.67;435257;1255;100594;-41
2024/04/03 12:24:39;;;;;;;3.30;0.90;;;;;;;14.35;52.78;97701.15;435220;1251;107588;-40
2024/04/03 12:34:47;;;;;;;8.90;1.60;;;;;;;15.07;51.51;97699.79;435215;1253;99350;-40
2024/04/03 12:44:55;;;;;;;4.40;0.80;;;;;;;15.07;50.78;97706.92;435315;1255;113437;-41
2024/04/03 12:55:02;;;;;;;6.30;1.20;;;;;;;15.04;50.22;97712.11;435231;1256;107442;-40
2024/04/03 13:05:08;;;;;;;3.10;1.30;;;;;;;14.94;50.48;97733.71;435419;1253;100703;-40
2024/04/03 13:15:15;;;;;;;3.80;1.10;;;;;;;14.83;50.81;97746.73;435336;1256;107625;-41
2024/04/03 13:25:22;;;;;;;2.90;1.00;;;;;;;14.93;50.94;97746.55;435044;1256;100613;-40
2024/04/03 13:35:29;;;;;;;25.30;12.30;;;;;;;14.85;50.86;97749.40;435356;1256;113300;-41
2024/04/03 13:45:36;;;;;;;8.10;3.10;;;;;;;14.66;51.47;97760.44;435331;1255;108841;-40
2024/04/03 14:05:48;;;;;;;5.10;3.60;;;;;;;14.28;52.80;97776.88;435294;1257;107704;-42
2024/04/03 14:15:55;;;;;;;7.50;1.80;;;;;;;14.21;53.34;97783.39;435263;1257;99372;-40
2024/04/03 14:26:02;;;;;;;5.90;2.00;;;;;;;14.05;53.69;97795.64;435252;1250;112901;-41
2024/04/03 14:36:07;;;;;;;5.10;1.70;;;;;;;14.01;54.01;97800.12;435172;1264;108182;-41
2024/04/03 14:46:14;;;;;;;8.40;2.30;;;;;;;13.87;54.32;97806.33;435456;1251;100599;-41
2024/04/03 14:56:21;;;;;;;7.80;1.80;;;;;;;13.69;54.83;97818.54;435175;1263;106340;-41
2024/04/03 15:06:29;;;;;;;5.90;2.30;;;;;;;13.56;55.29;97826.38;435346;1264;99294;-41
2024/04/03 15:16:36;;;;;;;8.70;2.60;;;;;;;13.39;56.31;97839.78;435391;1257;113495;-41
2024/04/03 15:36:52;;;;;;;5.70;2.30;;;;;;;12.50;58.99;97855.98;435174;1251;100436;-42
2024/04/03 15:46:59;;;;;;;7.50;2.90;;;;;;;12.34;59.97;97866.54;435107;1256;108353;-41
2024/04/03 15:57:05;;;;;;;9.60;3.60;;;;;;;12.27;60.66;97875.66;435257;1256;99384;-41
2024/04/03 16:07:13;;;;;;;6.40;3.00;;;;;;;12.34;61.09;97874.81;435108;1255;111551;-40
2024/04/03 16:17:20;;;;;;;16.80;10.70;;;;;;;12.44;61.72;97871.55;435313;1256;107946;-40
2024/04/03 16:27:40;;;;;;;10.00;4.40;;;;;;;12.42;61.82;97876.80;435247;1256;100665;-41
2024/04/03 16:37:48;;;;;;;9.00;4.00;;;;;;;12.32;61.98;97889.21;435107;1265;109427;-41
2024/04/03 16:47:55;;;;;;;12.60;5.00;;;;;;;12.20;62.27;97897.54;435178;1264;100593;-41
2024/04/03 16:58:02;;;;;;;12.90;6.30;;;;;;;12.10;62.40;97906.60;435101;1265;112499;-41
2024/04/03 17:08:06;;;;;;;14.60;5.80;;;;;;;11.98;62.65;97913.05;435166;1265;108604;-42
2024/04/03 17:18:13;;;;;;;10.10;4.50;;;;;;;11.83;63.03;97920.31;435331;1251;100574;-41
2024/04/03 17:28:19;;;;;;;14.90;6.70;;;;;;;11.79;63.20;97925.05;435082;1264;108774;-41
2024/04/03 17:38:27;;;;;;;18.80;11.20;;;;;;;11.82;63.33;97940.02;434894;1256;407292;-42
2024/04/03 17:48:34;;;;;;;19.10;13.00;;;;;;;11.81;63.78;97954.61;435122;1257;114399;-41
2024/04/03 17:58:41;;;;;;;31.30;15.90;;;;;;;11.76;64.04;97966.59;435075;1253;108268;-45
2024/04/03 18:08:47;;;;;;;20.20;8.40;;;;;;;11.71;64.13;97982.75;435225;1257;100616;-40
2024/04/03 18:29:05;;;;;;;17.00;8.70;;;;;;;11.45;64.60;98007.73;435209;1264;100571;-40
2024/04/03 18:39:29;;;;;;;19.30;10.00;;;;;;;11.40;64.93;98022.15;435067;1257;114294;-40
2024/04/03 18:49:36;;;;;;;9.90;5.70;;;;;;;11.39;65.15;98036.06;435043;1258;107929;-41
2024/04/03 18:59:41;;;;;;;7.60;3.00;;;;;;;11.35;66.23;98051.23;435228;1253;99353;-41
2024/04/03 19:09:47;;;;;;;10.90;6.30;;;;;;;11.16;67.39;98062.99;435151;1264;109483;-40
2024/04/03 19:19:54;;;;;;;14.30;9.20;;;;;;;10.88;68.16;98070.91;435198;1257;99285;-39
2024/04/03 19:30:00;;;;;;;8.50;4.90;;;;;;;10.71;68.85;98072.80;435151;1255;113327;-40
2024/04/03 19:40:10;;;;;;;16.70;6.60;;;;;;;10.63;69.62;98072.31;435069;1256;108585;-41
2024/04/03 19:50:15;;;;;;;12.60;5.00;;;;;;;10.61;70.58;98077.35;435097;1257;100591;-41
2024/04/03 20:00:22;;;;;;;10.00;5.30;;;;;;;10.59;71.16;98079.17;435319;1251;108107;-40
2024/04/03 20:10:39;;;;;;;37.90;21.30;;;;;;;10.54;71.97;98077.89;435184;1257;100576;-41
2024/04/03 20:20:48;;;;;;;16.40;8.60;;;;;;;10.53;72.51;98081.26;435140;1257;114270;-41
2024/04/03 20:30:55;;;;;;;19.10;13.40;;;;;;;10.60;72.95;98086.70;435009;1251;107056;-41
2024/04/03 20:41:03;;;;;;;42.30;22.80;;;;;;;10.71;73.43;98087.40;435061;1257;100693;-41
2024/04/03 20:51:10;;;;;;;23.80;16.90;;;;;;;10.75;73.90;98091.36;435166;1257;108173;-40
2024/04/03 21:01:16;;;;;;;34.60;20.80;;;;;;;10.66;74.09;98093.39;435033;1257;100605;-41
2024/04/03 21:11:23;;;;;;;23.30;13.20;;;;;;;10.48;74.34;98094.42;435054;1251;114063;-41
2024/04/03 21:21:30;;;;;;;18.10;12.50;;;;;;;10.43;74.68;98097.27;435145;1257;107350;-40
2024/04/03 21:41:43;;;;;;;20.60;12.10;;;;;;;10.52;75.59;98112.50;435160;1256;108069;-41
2024/04/03 21:51:49;;;;;;;17.20;11.70;;;;;;;10.53;76.15;98121.45;435135;1257;100571;-42
2024/04/03 22:01:54;;;;;;;16.90;12.60;;;;;;;10.45;76.12;98123.03;435138;1251;113136;-42
2024/04/03 22:22:07;;;;;;;17.50;12.40;;;;;;;10.43;76.89;98128.33;435197;1251;100683;-41
2024/04/03 22:32:14;;;;;;;17.70;14.80;;;;;;;10.36;77.29;98126.98;435353;1256;107680;-41
2024/04/03 22:42:21;;;;;;;20.00;16.40;;;;;;;10.27;77.67;98131.55;435213;1256;100623;-40
2024/04/03 22:52:27;;;;;;;18.50;15.50;;;;;;;10.18;77.96;98133.08;435109;1256;113348;-42
2024/04/03 23:02:34;;;;;;;23.60;14.60;;;;;;;10.23;78.32;98131.17;435170;1256;108097;-41
2024/04/03 23:12:41;;;;;;;24.00;17.10;;;;;;;10.35;78.85;98133.16;435081;1252;100830;-40
2024/04/03 23:22:47;;;;;;;19.60;14.20;;;;;;;10.47;78.91;98130.02;435007;1256;108082;-41
2024/04/03 23:32:53;;;;;;;20.60;14.60;;;;;;;10.41;79.10;98123.38;435159;1256;100396;-42
2024/04/03 23:42:59;;;;;;;20.00;14.30;;;;;;;10.30;79.24;98125.68;435195;1251;113385;-40
2024/04/03 23:53:05;;;;;;;27.20;16.90;;;;;;;10.34;79.49;98117.02;435169;1256;108459;-40
